sensor_id;sensor_type;location;lat;lon;timestamp;pressure;altitude;pressure_sealevel;temperature;humidity
35655;BME280;21773;50.010;19.972;2023-01-31T00:02:50;97974.97;;;7.42;57.74
35655;BME280;21773;50.010;19.972;2023-01-31T00:05:53;97970.03;;;7.38;58.26
35655;BME280;21773;50.010;19.972;2023-01-31T00:08:58;97969.00;;;7.39;58.56
35655;BME280;21773;50.010;19.972;2023-01-31T00:12:03;97955.44;;;7.34;58.89
35655;BME280;21773;50.010;19.972;2023-01-31T00:15:07;97957.47;;;7.21;59.80
35655;BME280;21773;50.010;19.972;2023-01-31T00:18:11;97966.69;;;7.25;59.73
35655;BME280;21773;50.010;19.972;2023-01-31T00:21:16;97953.06;;;7.08;60.19
35655;BME280;21773;50.010;19.972;2023-01-31T00:24:19;97976.44;;;7.19;60.49
35655;BME280;21773;50.010;19.972;2023-01-31T00:27:24;97981.38;;;7.22;60.14
35655;BME280;21773;50.010;19.972;2023-01-31T00:30:28;97980.19;;;7.18;60.34
35655;BME280;21773;50.010;19.972;2023-01-31T00:33:31;97970.09;;;7.14;60.64
35655;BME280;21773;50.010;19.972;2023-01-31T00:36:35;97992.81;;;7.11;60.77
35655;BME280;21773;50.010;19.972;2023-01-31T00:39:42;97993.03;;;7.10;60.83
35655;BME280;21773;50.010;19.972;2023-01-31T00:42:47;97996.38;;;7.05;60.96
35655;BME280;21773;50.010;19.972;2023-01-31T00:45:50;97988.78;;;7.02;61.30
35655;BME280;21773;50.010;19.972;2023-01-31T00:48:54;97991.72;;;6.94;61.49
35655;BME280;21773;50.010;19.972;2023-01-31T00:51:58;97990.22;;;6.80;62.39
35655;BME280;21773;50.010;19.972;2023-01-31T00:55:02;98002.16;;;6.84;62.24
35655;BME280;21773;50.010;19.972;2023-01-31T00:58:06;97996.63;;;6.79;62.59
35655;BME280;21773;50.010;19.972;2023-01-31T01:01:15;98002.72;;;6.86;62.41
35655;BME280;21773;50.010;19.972;2023-01-31T01:04:20;97993.13;;;6.78;62.37
35655;BME280;21773;50.010;19.972;2023-01-31T01:07:25;97998.03;;;6.81;62.46
35655;BME280;21773;50.010;19.972;2023-01-31T01:10:28;97983.44;;;6.77;62.16
35655;BME280;21773;50.010;19.972;2023-01-31T01:13:34;98011.59;;;6.86;62.13
35655;BME280;21773;50.010;19.972;2023-01-31T01:16:38;98012.25;;;6.82;62.09
35655;BME280;21773;50.010;19.972;2023-01-31T01:19:43;98018.66;;;6.81;62.29
35655;BME280;21773;50.010;19.972;2023-01-31T01:22:46;98018.44;;;6.82;62.32
35655;BME280;21773;50.010;19.972;2023-01-31T01:25:50;98022.16;;;6.81;62.30
35655;BME280;21773;50.010;19.972;2023-01-31T01:28:57;98019.75;;;6.73;62.75
35655;BME280;21773;50.010;19.972;2023-01-31T01:32:03;98018.56;;;6.69;62.85
35655;BME280;21773;50.010;19.972;2023-01-31T01:35:07;98021.16;;;6.76;62.70
35655;BME280;21773;50.010;19.972;2023-01-31T01:38:11;98021.41;;;6.74;62.97
35655;BME280;21773;50.010;19.972;2023-01-31T01:41:14;98002.97;;;6.60;62.90
35655;BME280;21773;50.010;19.972;2023-01-31T01:44:46;98024.31;;;6.66;63.08
35655;BME280;21773;50.010;19.972;2023-01-31T01:47:51;98028.38;;;6.75;62.87
35655;BME280;21773;50.010;19.972;2023-01-31T01:50:56;98035.59;;;6.75;62.97
35655;BME280;21773;50.010;19.972;2023-01-31T01:54:04;98042.75;;;6.81;63.11
35655;BME280;21773;50.010;19.972;2023-01-31T01:57:12;98048.06;;;6.87;62.76
35655;BME280;21773;50.010;19.972;2023-01-31T02:00:21;98025.28;;;6.78;62.96
35655;BME280;21773;50.010;19.972;2023-01-31T02:03:26;98042.09;;;6.85;62.93
35655;BME280;21773;50.010;19.972;2023-01-31T02:06:34;98040.19;;;6.92;62.88
35655;BME280;21773;50.010;19.972;2023-01-31T02:09:44;98050.91;;;6.92;62.87
35655;BME280;21773;50.010;19.972;2023-01-31T02:12:49;98052.31;;;6.95;62.82
35655;BME280;21773;50.010;19.972;2023-01-31T02:15:55;98053.22;;;6.89;63.00
35655;BME280;21773;50.010;19.972;2023-01-31T02:18:59;98061.63;;;6.92;63.00
35655;BME280;21773;50.010;19.972;2023-01-31T02:22:16;98062.84;;;6.96;62.76
35655;BME280;21773;50.010;19.972;2023-01-31T02:25:47;98064.06;;;6.94;62.64
35655;BME280;21773;50.010;19.972;2023-01-31T02:29:22;98071.19;;;7.07;62.60
35655;BME280;21773;50.010;19.972;2023-01-31T02:32:44;98083.31;;;7.09;62.24
35655;BME280;21773;50.010;19.972;2023-01-31T02:36:00;98088.28;;;7.12;62.13
35655;BME280;21773;50.010;19.972;2023-01-31T02:39:12;98072.91;;;7.01;62.19
35655;BME280;21773;50.010;19.972;2023-01-31T02:42:26;98102.41;;;7.19;61.60
35655;BME280;21773;50.010;19.972;2023-01-31T02:45:39;98097.06;;;7.19;61.69
35655;BME280;21773;50.010;19.972;2023-01-31T02:48:53;98103.63;;;7.23;61.37
35655;BME280;21773;50.010;19.972;2023-01-31T02:52:05;98103.69;;;7.17;61.17
35655;BME280;21773;50.010;19.972;2023-01-31T02:55:24;98060.34;;;6.95;61.10
35655;BME280;21773;50.010;19.972;2023-01-31T02:58:53;98133.75;;;7.19;61.34
35655;BME280;21773;50.010;19.972;2023-01-31T03:02:00;98135.03;;;7.16;61.28
35655;BME280;21773;50.010;19.972;2023-01-31T03:05:06;98143.28;;;7.15;61.24
35655;BME280;21773;50.010;19.972;2023-01-31T03:08:11;98141.22;;;7.17;60.78
35655;BME280;21773;50.010;19.972;2023-01-31T03:11:26;98152.94;;;7.22;60.59
35655;BME280;21773;50.010;19.972;2023-01-31T03:14:40;98150.81;;;7.31;60.40
35655;BME280;21773;50.010;19.972;2023-01-31T03:17:53;98160.66;;;7.37;60.14
35655;BME280;21773;50.010;19.972;2023-01-31T03:21:07;98139.75;;;7.46;59.69
35655;BME280;21773;50.010;19.972;2023-01-31T03:24:14;98145.31;;;7.44;59.08
35655;BME280;21773;50.010;19.972;2023-01-31T03:27:19;98132.03;;;7.31;58.57
35655;BME280;21773;50.010;19.972;2023-01-31T03:30:31;98166.34;;;7.47;57.88
35655;BME280;21773;50.010;19.972;2023-01-31T03:33:40;98160.91;;;7.54;57.45
35655;BME280;21773;50.010;19.972;2023-01-31T03:36:53;98164.00;;;7.57;57.23
35655;BME280;21773;50.010;19.972;2023-01-31T03:40:23;98173.13;;;7.50;57.60
35655;BME280;21773;50.010;19.972;2023-01-31T03:43:36;98193.88;;;7.61;57.23
35655;BME280;21773;50.010;19.972;2023-01-31T03:46:45;98176.97;;;7.60;57.39
35655;BME280;21773;50.010;19.972;2023-01-31T03:49:51;98194.00;;;7.48;57.32
35655;BME280;21773;50.010;19.972;2023-01-31T03:53:06;98198.94;;;7.44;57.54
35655;BME280;21773;50.010;19.972;2023-01-31T03:56:15;98199.94;;;7.50;57.32
35655;BME280;21773;50.010;19.972;2023-01-31T03:59:24;98199.13;;;7.49;57.21
35655;BME280;21773;50.010;19.972;2023-01-31T04:02:33;98195.19;;;7.52;57.21
35655;BME280;21773;50.010;19.972;2023-01-31T04:05:37;98193.75;;;7.49;57.12
35655;BME280;21773;50.010;19.972;2023-01-31T04:08:43;98203.78;;;7.60;57.12
35655;BME280;21773;50.010;19.972;2023-01-31T04:11:49;98193.91;;;7.29;57.70
35655;BME280;21773;50.010;19.972;2023-01-31T04:14:53;98209.94;;;7.36;57.51
35655;BME280;21773;50.010;19.972;2023-01-31T04:17:57;98216.78;;;7.32;57.58
35655;BME280;21773;50.010;19.972;2023-01-31T04:21:00;98212.19;;;7.39;57.27
35655;BME280;21773;50.010;19.972;2023-01-31T04:24:05;98220.47;;;7.37;57.15
35655;BME280;21773;50.010;19.972;2023-01-31T04:27:11;98228.94;;;7.34;57.15
35655;BME280;21773;50.010;19.972;2023-01-31T04:30:14;98228.34;;;7.32;57.30
35655;BME280;21773;50.010;19.972;2023-01-31T04:33:17;98234.09;;;7.36;56.86
35655;BME280;21773;50.010;19.972;2023-01-31T04:36:21;98238.84;;;7.34;56.92
35655;BME280;21773;50.010;19.972;2023-01-31T04:39:26;98239.44;;;7.36;56.86
35655;BME280;21773;50.010;19.972;2023-01-31T04:42:29;98249.81;;;7.26;56.88
35655;BME280;21773;50.010;19.972;2023-01-31T04:45:32;98257.19;;;7.37;56.88
35655;BME280;21773;50.010;19.972;2023-01-31T04:48:36;98257.34;;;7.42;56.64
35655;BME280;21773;50.010;19.972;2023-01-31T04:51:40;98268.94;;;7.36;56.44
35655;BME280;21773;50.010;19.972;2023-01-31T04:54:45;98266.09;;;7.31;56.41
35655;BME280;21773;50.010;19.972;2023-01-31T04:57:49;98291.59;;;7.40;56.49
35655;BME280;21773;50.010;19.972;2023-01-31T05:00:52;98284.06;;;7.24;56.84
35655;BME280;21773;50.010;19.972;2023-01-31T05:03:56;98283.50;;;7.15;57.31
35655;BME280;21773;50.010;19.972;2023-01-31T05:06:59;98290.31;;;7.11;57.36
35655;BME280;21773;50.010;19.972;2023-01-31T05:10:04;98294.22;;;7.15;57.66
35655;BME280;21773;50.010;19.972;2023-01-31T05:13:09;98293.81;;;7.18;57.71
35655;BME280;21773;50.010;19.972;2023-01-31T05:16:12;98300.84;;;7.13;58.30
35655;BME280;21773;50.010;19.972;2023-01-31T05:19:16;98303.91;;;7.16;58.34
35655;BME280;21773;50.010;19.972;2023-01-31T05:22:20;98315.03;;;7.20;58.35
35655;BME280;21773;50.010;19.972;2023-01-31T05:25:25;98315.47;;;7.17;58.22
35655;BME280;21773;50.010;19.972;2023-01-31T05:28:28;98314.06;;;7.08;58.35
35655;BME280;21773;50.010;19.972;2023-01-31T05:31:32;98322.75;;;6.96;58.46
35655;BME280;21773;50.010;19.972;2023-01-31T05:34:36;98336.16;;;7.03;58.25
35655;BME280;21773;50.010;19.972;2023-01-31T05:37:40;98335.50;;;7.08;57.82
35655;BME280;21773;50.010;19.972;2023-01-31T05:40:45;98338.84;;;6.96;57.62
35655;BME280;21773;50.010;19.972;2023-01-31T05:43:48;98350.19;;;6.99;57.83
35655;BME280;21773;50.010;19.972;2023-01-31T05:46:52;98337.00;;;6.97;57.64
35655;BME280;21773;50.010;19.972;2023-01-31T05:49:55;98349.56;;;6.96;57.61
35655;BME280;21773;50.010;19.972;2023-01-31T05:52:59;98357.19;;;6.93;57.13
35655;BME280;21773;50.010;19.972;2023-01-31T05:56:06;98360.66;;;7.00;56.88
35655;BME280;21773;50.010;19.972;2023-01-31T05:59:09;98373.44;;;7.05;56.67
35655;BME280;21773;50.010;19.972;2023-01-31T06:02:13;98370.94;;;7.10;56.37
35655;BME280;21773;50.010;19.972;2023-01-31T06:05:16;98370.94;;;7.10;56.19
35655;BME280;21773;50.010;19.972;2023-01-31T06:08:20;98384.78;;;7.07;56.15
35655;BME280;21773;50.010;19.972;2023-01-31T06:11:25;98389.06;;;7.14;55.74
35655;BME280;21773;50.010;19.972;2023-01-31T06:14:28;98376.72;;;7.13;55.61
35655;BME280;21773;50.010;19.972;2023-01-31T06:17:31;98387.41;;;7.20;55.34
35655;BME280;21773;50.010;19.972;2023-01-31T06:20:35;98402.66;;;7.19;55.04
35655;BME280;21773;50.010;19.972;2023-01-31T06:23:39;98412.38;;;7.14;55.05
35655;BME280;21773;50.010;19.972;2023-01-31T06:26:48;98415.66;;;7.16;55.07
35655;BME280;21773;50.010;19.972;2023-01-31T06:29:52;98421.22;;;7.27;54.99
35655;BME280;21773;50.010;19.972;2023-01-31T06:32:58;98429.03;;;7.29;54.96
35655;BME280;21773;50.010;19.972;2023-01-31T06:36:02;98437.69;;;7.31;54.90
35655;BME280;21773;50.010;19.972;2023-01-31T06:39:06;98447.56;;;7.37;55.19
35655;BME280;21773;50.010;19.972;2023-01-31T06:42:10;98435.63;;;7.33;55.25
35655;BME280;21773;50.010;19.972;2023-01-31T06:45:14;98443.50;;;7.21;55.66
35655;BME280;21773;50.010;19.972;2023-01-31T06:48:18;98452.38;;;7.15;56.03
35655;BME280;21773;50.010;19.972;2023-01-31T06:51:21;98450.31;;;7.11;56.16
35655;BME280;21773;50.010;19.972;2023-01-31T06:54:25;98457.50;;;7.23;56.34
35655;BME280;21773;50.010;19.972;2023-01-31T06:57:29;98476.25;;;7.30;56.24
35655;BME280;21773;50.010;19.972;2023-01-31T07:00:33;98475.44;;;7.29;56.07
35655;BME280;21773;50.010;19.972;2023-01-31T07:03:37;98479.13;;;7.35;56.00
35655;BME280;21773;50.010;19.972;2023-01-31T07:06:40;98487.41;;;7.27;55.88
35655;BME280;21773;50.010;19.972;2023-01-31T07:09:43;98498.53;;;7.37;55.51
35655;BME280;21773;50.010;19.972;2023-01-31T07:12:48;98502.63;;;7.46;55.38
35655;BME280;21773;50.010;19.972;2023-01-31T07:15:51;98512.91;;;7.56;54.92
35655;BME280;21773;50.010;19.972;2023-01-31T07:18:55;98519.53;;;7.47;55.03
35655;BME280;21773;50.010;19.972;2023-01-31T07:21:58;98514.44;;;7.25;54.93
35655;BME280;21773;50.010;19.972;2023-01-31T07:25:02;98529.25;;;7.48;54.77
35655;BME280;21773;50.010;19.972;2023-01-31T07:28:07;98539.53;;;7.51;54.61
35655;BME280;21773;50.010;19.972;2023-01-31T07:31:12;98536.28;;;7.42;54.69
35655;BME280;21773;50.010;19.972;2023-01-31T07:34:16;98540.38;;;7.45;54.88
35655;BME280;21773;50.010;19.972;2023-01-31T07:37:22;98552.75;;;7.52;54.41
35655;BME280;21773;50.010;19.972;2023-01-31T07:40:26;98551.72;;;7.40;54.31
35655;BME280;21773;50.010;19.972;2023-01-31T07:43:31;98549.25;;;7.52;54.41
35655;BME280;21773;50.010;19.972;2023-01-31T07:46:34;98544.91;;;7.51;54.30
35655;BME280;21773;50.010;19.972;2023-01-31T07:49:38;98558.50;;;7.49;54.39
35655;BME280;21773;50.010;19.972;2023-01-31T07:52:41;98509.69;;;7.27;54.19
35655;BME280;21773;50.010;19.972;2023-01-31T07:55:45;98557.28;;;7.52;54.06
35655;BME280;21773;50.010;19.972;2023-01-31T07:58:50;98551.47;;;7.61;53.84
35655;BME280;21773;50.010;19.972;2023-01-31T08:01:53;98555.59;;;7.64;54.18
35655;BME280;21773;50.010;19.972;2023-01-31T08:05:14;98555.97;;;7.67;53.83
35655;BME280;21773;50.010;19.972;2023-01-31T08:08:18;98562.38;;;7.73;53.61
35655;BME280;21773;50.010;19.972;2023-01-31T08:11:21;98559.53;;;7.55;53.97
35655;BME280;21773;50.010;19.972;2023-01-31T08:14:26;98564.50;;;7.45;54.32
35655;BME280;21773;50.010;19.972;2023-01-31T08:17:30;98562.66;;;7.52;54.63
35655;BME280;21773;50.010;19.972;2023-01-31T08:20:34;98565.72;;;7.55;54.60
35655;BME280;21773;50.010;19.972;2023-01-31T08:23:39;98572.31;;;7.59;54.67
35655;BME280;21773;50.010;19.972;2023-01-31T08:26:43;98578.94;;;7.50;54.50
35655;BME280;21773;50.010;19.972;2023-01-31T08:29:48;98589.63;;;7.63;54.38
35655;BME280;21773;50.010;19.972;2023-01-31T08:32:52;98597.88;;;7.75;54.18
35655;BME280;21773;50.010;19.972;2023-01-31T08:35:56;98599.34;;;7.71;53.60
35655;BME280;21773;50.010;19.972;2023-01-31T08:38:59;98586.75;;;7.58;53.48
35655;BME280;21773;50.010;19.972;2023-01-31T08:42:03;98601.38;;;7.75;53.10
35655;BME280;21773;50.010;19.972;2023-01-31T08:45:08;98610.66;;;7.79;52.94
35655;BME280;21773;50.010;19.972;2023-01-31T08:48:12;98610.66;;;7.79;52.62
35655;BME280;21773;50.010;19.972;2023-01-31T08:51:15;98605.50;;;7.78;52.48
35655;BME280;21773;50.010;19.972;2023-01-31T08:54:19;98607.34;;;7.77;52.38
35655;BME280;21773;50.010;19.972;2023-01-31T08:57:22;98616.66;;;7.75;52.37
35655;BME280;21773;50.010;19.972;2023-01-31T09:00:28;98609.03;;;7.65;52.84
35655;BME280;21773;50.010;19.972;2023-01-31T09:03:32;98598.75;;;7.62;53.23
35655;BME280;21773;50.010;19.972;2023-01-31T09:06:35;98620.75;;;7.84;53.30
35655;BME280;21773;50.010;19.972;2023-01-31T09:09:40;98635.63;;;7.87;52.86
35655;BME280;21773;50.010;19.972;2023-01-31T09:12:43;98623.63;;;7.89;53.21
35655;BME280;21773;50.010;19.972;2023-01-31T09:15:56;98630.44;;;7.92;52.60
35655;BME280;21773;50.010;19.972;2023-01-31T09:18:59;98634.25;;;8.22;51.83
35655;BME280;21773;50.010;19.972;2023-01-31T09:22:02;98630.72;;;8.28;51.11
35655;BME280;21773;50.010;19.972;2023-01-31T09:25:07;98634.63;;;8.39;50.89
35655;BME280;21773;50.010;19.972;2023-01-31T09:28:11;98631.34;;;8.37;50.17
35655;BME280;21773;50.010;19.972;2023-01-31T09:31:17;98632.38;;;8.36;49.92
35655;BME280;21773;50.010;19.972;2023-01-31T09:34:22;98634.19;;;8.42;49.63
35655;BME280;21773;50.010;19.972;2023-01-31T09:37:28;98626.72;;;8.50;49.93
35655;BME280;21773;50.010;19.972;2023-01-31T09:40:34;98630.94;;;8.40;49.55
35655;BME280;21773;50.010;19.972;2023-01-31T09:43:40;98638.34;;;8.38;49.60
35655;BME280;21773;50.010;19.972;2023-01-31T09:46:51;98636.25;;;8.46;49.26
35655;BME280;21773;50.010;19.972;2023-01-31T09:50:00;98638.53;;;8.49;49.02
35655;BME280;21773;50.010;19.972;2023-01-31T09:53:05;98636.19;;;8.59;49.13
35655;BME280;21773;50.010;19.972;2023-01-31T09:56:22;98636.03;;;8.54;48.81
35655;BME280;21773;50.010;19.972;2023-01-31T09:59:31;98634.97;;;8.55;48.94
35655;BME280;21773;50.010;19.972;2023-01-31T10:02:50;98635.25;;;8.79;48.85
35655;BME280;21773;50.010;19.972;2023-01-31T10:06:07;98640.28;;;8.68;48.91
35655;BME280;21773;50.010;19.972;2023-01-31T10:09:18;98633.34;;;8.54;49.44
35655;BME280;21773;50.010;19.972;2023-01-31T10:12:28;98630.41;;;8.56;49.43
35655;BME280;21773;50.010;19.972;2023-01-31T10:15:38;98622.53;;;8.61;49.17
35655;BME280;21773;50.010;19.972;2023-01-31T10:18:47;98627.13;;;8.54;49.80
35655;BME280;21773;50.010;19.972;2023-01-31T10:21:55;98632.44;;;8.60;49.93
35655;BME280;21773;50.010;19.972;2023-01-31T10:25:10;98637.34;;;8.70;50.10
35655;BME280;21773;50.010;19.972;2023-01-31T10:28:24;98641.94;;;8.69;50.04
35655;BME280;21773;50.010;19.972;2023-01-31T10:31:33;98632.09;;;8.50;50.11
35655;BME280;21773;50.010;19.972;2023-01-31T10:34:42;98643.19;;;8.60;50.02
35655;BME280;21773;50.010;19.972;2023-01-31T10:37:49;98639.38;;;8.37;50.44
35655;BME280;21773;50.010;19.972;2023-01-31T10:40:58;98635.88;;;8.36;50.67
35655;BME280;21773;50.010;19.972;2023-01-31T10:44:07;98640.19;;;8.44;50.11
35655;BME280;21773;50.010;19.972;2023-01-31T10:47:17;98653.94;;;8.60;49.86
35655;BME280;21773;50.010;19.972;2023-01-31T10:50:28;98652.44;;;8.71;49.18
35655;BME280;21773;50.010;19.972;2023-01-31T10:54:10;98622.59;;;8.54;49.00
35655;BME280;21773;50.010;19.972;2023-01-31T10:57:18;98647.63;;;8.80;48.24
35655;BME280;21773;50.010;19.972;2023-01-31T11:00:26;98645.81;;;9.05;47.81
35655;BME280;21773;50.010;19.972;2023-01-31T11:03:30;98643.09;;;9.11;47.48
35655;BME280;21773;50.010;19.972;2023-01-31T11:06:35;98644.47;;;9.21;46.69
35655;BME280;21773;50.010;19.972;2023-01-31T11:09:40;98643.63;;;9.20;46.49
35655;BME280;21773;50.010;19.972;2023-01-31T11:12:51;98630.41;;;8.94;46.09
35655;BME280;21773;50.010;19.972;2023-01-31T11:15:55;98632.38;;;9.05;46.63
35655;BME280;21773;50.010;19.972;2023-01-31T11:19:00;98631.72;;;9.09;46.06
35655;BME280;21773;50.010;19.972;2023-01-31T11:22:07;98634.06;;;8.99;45.85
35655;BME280;21773;50.010;19.972;2023-01-31T11:25:23;98640.28;;;9.00;45.03
35655;BME280;21773;50.010;19.972;2023-01-31T11:28:34;98629.44;;;8.82;44.88
35655;BME280;21773;50.010;19.972;2023-01-31T11:31:40;98625.38;;;8.73;45.23
35655;BME280;21773;50.010;19.972;2023-01-31T11:34:55;98633.69;;;8.64;44.58
35655;BME280;21773;50.010;19.972;2023-01-31T11:38:02;98635.72;;;8.69;45.13
35655;BME280;21773;50.010;19.972;2023-01-31T11:41:33;98630.16;;;8.95;45.91
35655;BME280;21773;50.010;19.972;2023-01-31T11:44:53;98642.13;;;8.99;45.97
35655;BME280;21773;50.010;19.972;2023-01-31T11:48:04;98642.41;;;8.91;46.03
35655;BME280;21773;50.010;19.972;2023-01-31T11:51:12;98631.97;;;9.08;45.62
35655;BME280;21773;50.010;19.972;2023-01-31T11:54:29;98630.97;;;9.02;45.57
35655;BME280;21773;50.010;19.972;2023-01-31T11:57:35;98625.50;;;9.09;45.57
35655;BME280;21773;50.010;19.972;2023-01-31T12:00:50;98635.69;;;9.07;45.34
35655;BME280;21773;50.010;19.972;2023-01-31T12:03:56;98626.66;;;8.95;46.20
35655;BME280;21773;50.010;19.972;2023-01-31T12:07:19;98631.47;;;8.86;46.32
35655;BME280;21773;50.010;19.972;2023-01-31T12:10:40;98629.72;;;8.74;46.99
35655;BME280;21773;50.010;19.972;2023-01-31T12:13:46;98631.88;;;9.14;46.60
35655;BME280;21773;50.010;19.972;2023-01-31T12:16:53;98612.00;;;9.83;44.98
35655;BME280;21773;50.010;19.972;2023-01-31T12:20:19;98619.19;;;10.44;43.82
35655;BME280;21773;50.010;19.972;2023-01-31T12:23:38;98613.81;;;10.44;42.94
35655;BME280;21773;50.010;19.972;2023-01-31T12:26:50;98603.84;;;10.08;43.15
35655;BME280;21773;50.010;19.972;2023-01-31T12:30:11;98613.38;;;10.11;43.38
35655;BME280;21773;50.010;19.972;2023-01-31T12:33:34;98607.28;;;9.79;43.29
35655;BME280;21773;50.010;19.972;2023-01-31T12:36:48;98599.72;;;9.69;43.27
35655;BME280;21773;50.010;19.972;2023-01-31T12:40:03;98597.56;;;9.78;42.43
35655;BME280;21773;50.010;19.972;2023-01-31T12:43:41;98602.22;;;9.89;42.08
35655;BME280;21773;50.010;19.972;2023-01-31T12:46:59;98601.91;;;9.97;41.83
35655;BME280;21773;50.010;19.972;2023-01-31T12:50:24;98610.22;;;9.95;41.89
35655;BME280;21773;50.010;19.972;2023-01-31T12:53:52;98601.16;;;9.90;41.52
35655;BME280;21773;50.010;19.972;2023-01-31T12:57:06;98601.63;;;9.87;41.58
35655;BME280;21773;50.010;19.972;2023-01-31T13:00:32;98597.78;;;10.13;41.69
35655;BME280;21773;50.010;19.972;2023-01-31T13:04:05;98591.09;;;10.52;40.15
35655;BME280;21773;50.010;19.972;2023-01-31T13:07:13;98583.56;;;10.42;40.24
35655;BME280;21773;50.010;19.972;2023-01-31T13:10:26;98579.75;;;10.61;40.25
35655;BME280;21773;50.010;19.972;2023-01-31T13:13:34;98576.66;;;10.76;41.01
35655;BME280;21773;50.010;19.972;2023-01-31T13:16:43;98590.78;;;10.60;41.82
35655;BME280;21773;50.010;19.972;2023-01-31T13:19:49;98584.75;;;10.46;42.11
35655;BME280;21773;50.010;19.972;2023-01-31T13:22:55;98581.81;;;10.18;42.96
35655;BME280;21773;50.010;19.972;2023-01-31T13:26:05;98580.16;;;10.35;43.16
35655;BME280;21773;50.010;19.972;2023-01-31T13:29:13;98591.16;;;10.63;42.78
35655;BME280;21773;50.010;19.972;2023-01-31T13:32:26;98589.41;;;10.39;42.87
35655;BME280;21773;50.010;19.972;2023-01-31T13:35:33;98598.25;;;10.10;43.13
35655;BME280;21773;50.010;19.972;2023-01-31T13:38:41;98565.50;;;9.76;44.08
35655;BME280;21773;50.010;19.972;2023-01-31T13:45:25;98587.25;;;9.56;44.85
35655;BME280;21773;50.010;19.972;2023-01-31T13:48:34;98577.97;;;9.52;45.29
35655;BME280;21773;50.010;19.972;2023-01-31T13:51:43;98577.97;;;9.52;45.33
35655;BME280;21773;50.010;19.972;2023-01-31T13:54:51;98560.88;;;9.22;45.50
35655;BME280;21773;50.010;19.972;2023-01-31T13:58:02;98573.72;;;9.20;45.77
35655;BME280;21773;50.010;19.972;2023-01-31T14:01:07;98586.56;;;9.18;46.00
35655;BME280;21773;50.010;19.972;2023-01-31T14:04:23;98580.06;;;9.01;46.28
35655;BME280;21773;50.010;19.972;2023-01-31T14:07:27;98581.19;;;8.93;46.32
35655;BME280;21773;50.010;19.972;2023-01-31T14:10:36;98581.53;;;8.72;46.83
35655;BME280;21773;50.010;19.972;2023-01-31T14:13:42;98584.84;;;8.74;47.17
35655;BME280;21773;50.010;19.972;2023-01-31T14:16:46;98585.72;;;8.61;47.71
35655;BME280;21773;50.010;19.972;2023-01-31T14:20:04;98577.09;;;8.59;47.97
35655;BME280;21773;50.010;19.972;2023-01-31T14:23:29;98570.81;;;8.65;47.92
35655;BME280;21773;50.010;19.972;2023-01-31T14:26:50;98570.00;;;8.65;47.90
35655;BME280;21773;50.010;19.972;2023-01-31T14:29:59;98571.72;;;8.59;47.87
35655;BME280;21773;50.010;19.972;2023-01-31T14:59:52;98554.22;;;7.99;49.40
35655;BME280;21773;50.010;19.972;2023-01-31T15:03:03;98555.47;;;7.97;49.99
35655;BME280;21773;50.010;19.972;2023-01-31T15:06:10;98559.41;;;7.94;49.87
35655;BME280;21773;50.010;19.972;2023-01-31T15:09:25;98547.47;;;7.83;50.60
35655;BME280;21773;50.010;19.972;2023-01-31T15:12:54;98555.50;;;7.90;50.78
35655;BME280;21773;50.010;19.972;2023-01-31T15:16:04;98548.31;;;7.77;51.57
35655;BME280;21773;50.010;19.972;2023-01-31T15:19:12;98548.75;;;7.74;52.13
35655;BME280;21773;50.010;19.972;2023-01-31T15:22:17;98545.28;;;7.61;52.79
35655;BME280;21773;50.010;19.972;2023-01-31T15:25:29;98546.16;;;7.42;53.62
35655;BME280;21773;50.010;19.972;2023-01-31T15:28:36;98540.59;;;7.36;54.08
35655;BME280;21773;50.010;19.972;2023-01-31T15:43:19;98543.72;;;7.14;55.29
35655;BME280;21773;50.010;19.972;2023-01-31T15:46:27;98533.00;;;7.20;55.12
35655;BME280;21773;50.010;19.972;2023-01-31T15:49:32;98524.75;;;7.22;55.23
35655;BME280;21773;50.010;19.972;2023-01-31T15:52:41;98526.59;;;7.15;55.65
35655;BME280;21773;50.010;19.972;2023-01-31T15:55:45;98529.72;;;7.12;55.96
35655;BME280;21773;50.010;19.972;2023-01-31T15:58:53;98517.97;;;7.06;56.14
35655;BME280;21773;50.010;19.972;2023-01-31T16:05:38;98503.31;;;7.15;56.20
35655;BME280;21773;50.010;19.972;2023-01-31T16:08:42;98480.88;;;7.03;56.15
35655;BME280;21773;50.010;19.972;2023-01-31T16:11:45;98496.09;;;7.09;56.46
35655;BME280;21773;50.010;19.972;2023-01-31T16:14:51;98494.25;;;7.10;55.98
35655;BME280;21773;50.010;19.972;2023-01-31T16:18:01;98491.75;;;7.15;55.76
35655;BME280;21773;50.010;19.972;2023-01-31T16:21:14;98488.47;;;7.00;56.85
35655;BME280;21773;50.010;19.972;2023-01-31T16:24:19;98490.34;;;7.12;57.05
35655;BME280;21773;50.010;19.972;2023-01-31T16:27:26;98480.25;;;7.01;57.49
35655;BME280;21773;50.010;19.972;2023-01-31T16:38:04;98478.22;;;6.77;59.38
35655;BME280;21773;50.010;19.972;2023-01-31T16:41:09;98486.44;;;6.82;59.82
35655;BME280;21773;50.010;19.972;2023-01-31T16:44:15;98492.22;;;6.85;60.07
35655;BME280;21773;50.010;19.972;2023-01-31T16:47:45;98485.81;;;6.80;60.55
35655;BME280;21773;50.010;19.972;2023-01-31T16:50:50;98485.84;;;6.73;60.93
35655;BME280;21773;50.010;19.972;2023-01-31T16:54:13;98496.16;;;6.83;60.76
35655;BME280;21773;50.010;19.972;2023-01-31T16:57:23;98480.06;;;6.63;61.33
35655;BME280;21773;50.010;19.972;2023-01-31T17:00:32;98487.06;;;6.77;61.26
35655;BME280;21773;50.010;19.972;2023-01-31T17:03:35;98496.34;;;6.75;61.32
35655;BME280;21773;50.010;19.972;2023-01-31T17:06:40;98489.75;;;6.77;61.34
35655;BME280;21773;50.010;19.972;2023-01-31T17:09:45;98485.03;;;6.73;61.70
35655;BME280;21773;50.010;19.972;2023-01-31T17:12:50;98475.72;;;6.75;61.35
35655;BME280;21773;50.010;19.972;2023-01-31T17:15:53;98476.97;;;6.73;61.88
35655;BME280;21773;50.010;19.972;2023-01-31T17:18:56;98468.34;;;6.64;61.85
35655;BME280;21773;50.010;19.972;2023-01-31T17:22:00;98467.50;;;6.77;61.53
35655;BME280;21773;50.010;19.972;2023-01-31T17:25:13;98462.56;;;6.74;61.51
35655;BME280;21773;50.010;19.972;2023-01-31T17:28:19;98460.88;;;6.79;61.58
35655;BME280;21773;50.010;19.972;2023-01-31T17:35:15;98455.13;;;6.89;61.15